Time;durP1;ratioP1;P1;durP2;ratioP2;P2;SDS_P1;SDS_P2;PMS_P1;PMS_P2;Temp;Humidity;BMP_temperature;BMP_pressure;BME280_temperature;BME280_humidity;BME280_pressure;Samples;Min_cycle;Max_cycle;Signal;HPM_P1;HPM_P2
2021/03/21 00:00:24;;;;;;;0.47;0.47;;;5.60;99.90;;;;;;5016484;28;20038;-76
2021/03/21 00:02:50;;;;;;;0.90;0.40;;;5.70;99.90;;;;;;5028077;28;20094;-76
2021/03/21 00:05:16;;;;;;;1.57;0.77;;;5.70;99.90;;;;;;5028749;28;20017;-75
2021/03/21 00:07:41;;;;;;;0.10;0.10;;;5.80;99.90;;;;;;5016963;28;20622;-75
2021/03/21 00:10:07;;;;;;;0.13;0.13;;;5.70;99.90;;;;;;5014949;28;20083;-75
2021/03/21 00:12:33;;;;;;;0.73;0.60;;;5.80;99.90;;;;;;5033823;28;20033;-75
2021/03/21 00:14:59;;;;;;;0.33;0.33;;;5.70;99.90;;;;;;5033334;28;20033;-76
2021/03/21 00:17:25;;;;;;;0.30;0.30;;;5.80;99.90;;;;;;5030778;28;20059;-75
2021/03/21 00:19:50;;;;;;;0.28;0.28;;;5.80;99.90;;;;;;5033543;28;20045;-75
2021/03/21 00:22:16;;;;;;;0.20;0.20;;;5.80;99.90;;;;;;5015373;28;20617;-75
2021/03/21 00:24:42;;;;;;;0.30;0.30;;;5.80;99.90;;;;;;5029195;28;20029;-75
2021/03/21 00:27:08;;;;;;;0.17;0.17;;;5.80;99.90;;;;;;5029248;28;20068;-75
2021/03/21 00:29:34;;;;;;;0.10;0.10;;;5.70;99.90;;;;;;5016114;28;20372;-76
2021/03/21 00:32:00;;;;;;;0.07;0.07;;;5.80;99.90;;;;;;5014248;28;20029;-74
2021/03/21 00:34:25;;;;;;;0.32;0.32;;;5.80;99.90;;;;;;5027859;28;20270;-74
2021/03/21 00:36:51;;;;;;;0.40;0.20;;;5.70;99.90;;;;;;5010466;28;20032;-74
2021/03/21 00:39:17;;;;;;;0.30;0.30;;;5.80;99.90;;;;;;5031079;28;20029;-74
2021/03/21 00:41:42;;;;;;;0.13;0.13;;;5.80;99.90;;;;;;5033849;28;20044;-74
2021/03/21 00:44:08;;;;;;;0.30;0.30;;;5.80;99.90;;;;;;5015688;28;20105;-75
2021/03/21 00:46:34;;;;;;;0.30;0.30;;;5.70;99.90;;;;;;5016541;28;20025;-75
2021/03/21 00:48:59;;;;;;;0.25;0.25;;;5.70;99.90;;;;;;5016596;28;20033;-75
2021/03/21 00:51:25;;;;;;;0.77;0.17;;;5.60;99.90;;;;;;5032084;28;20022;-75
2021/03/21 00:53:51;;;;;;;0.23;0.23;;;5.60;99.90;;;;;;5010984;28;20038;-75
2021/03/21 00:56:33;;;;;;;0.00;0.00;;;5.60;99.90;;;;;;5033050;28;20464;-75
2021/03/21 00:58:59;;;;;;;0.52;0.38;;;5.60;99.90;;;;;;5033511;28;20022;-75
2021/03/21 01:01:27;;;;;;;0.50;0.47;;;5.70;99.90;;;;;;5028134;28;20040;-78
2021/03/21 01:03:52;;;;;;;0.35;0.35;;;5.70;99.90;;;;;;5033306;28;20028;-74
2021/03/21 01:06:19;;;;;;;0.00;0.00;;;5.70;99.90;;;;;;5032697;28;20018;-75
2021/03/21 01:08:44;;;;;;;0.20;0.20;;;5.70;99.90;;;;;;5037643;28;20067;-75
2021/03/21 01:11:17;;;;;;;0.53;0.33;;;5.70;99.90;;;;;;5036708;28;20045;-74
2021/03/21 01:13:44;;;;;;;0.22;0.22;;;5.60;99.90;;;;;;5037705;28;20030;-76
2021/03/21 01:16:21;;;;;;;;;;;5.60;99.90;;;;;;5020213;28;20033;-75
2021/03/21 01:18:48;;;;;;;;;;;5.60;99.90;;;;;;5034131;28;19963;-75
2021/03/21 01:21:14;;;;;;;0.32;0.30;;;5.60;99.90;;;;;;5034378;28;19920;-74
2021/03/21 01:23:41;;;;;;;0.00;0.00;;;5.60;99.90;;;;;;5015691;28;20026;-75
2021/03/21 01:26:09;;;;;;;;;;;5.70;99.90;;;;;;5037443;28;20025;-74
2021/03/21 01:28:36;;;;;;;0.00;0.00;;;5.70;99.90;;;;;;5034175;28;20260;-74
2021/03/21 01:31:06;;;;;;;0.25;0.25;;;5.70;99.90;;;;;;5031642;28;20033;-75
2021/03/21 01:33:33;;;;;;;0.20;0.20;;;5.60;99.90;;;;;;5035636;28;20022;-75
2021/03/21 01:35:59;;;;;;;;;;;5.60;99.90;;;;;;5019810;28;20017;-74
2021/03/21 01:38:25;;;;;;;0.13;0.13;;;5.60;99.90;;;;;;5019378;28;19916;-73
2021/03/21 01:40:57;;;;;;;0.10;0.10;;;5.60;99.90;;;;;;5030691;28;20029;-74
2021/03/21 01:43:33;;;;;;;0.03;0.03;;;5.60;99.90;;;;;;5019332;28;20163;-75
2021/03/21 01:45:59;;;;;;;0.25;0.25;;;5.60;99.90;;;;;;5036160;28;20025;-74
2021/03/21 01:48:43;;;;;;;0.15;0.15;;;5.50;99.90;;;;;;5018281;28;20017;-75
2021/03/21 01:51:24;;;;;;;0.08;0.08;;;5.50;99.90;;;;;;5030316;28;20179;-75
2021/03/21 01:53:56;;;;;;;0.30;0.30;;;5.50;99.90;;;;;;5029886;28;20036;-75
2021/03/21 01:56:25;;;;;;;0.77;0.28;;;5.40;99.90;;;;;;5016584;28;20033;-75
2021/03/21 01:59:00;;;;;;;0.00;0.00;;;5.40;99.90;;;;;;5019436;28;20026;-74
2021/03/21 02:01:28;;;;;;;0.65;0.65;;;5.40;99.90;;;;;;5036693;28;20024;-75
2021/03/21 02:03:54;;;;;;;1.10;0.38;;;5.40;99.90;;;;;;5028952;28;20037;-75
2021/03/21 02:06:29;;;;;;;0.30;0.30;;;5.50;99.90;;;;;;5018563;28;20285;-74
2021/03/21 02:09:17;;;;;;;0.38;0.17;;;5.50;99.90;;;;;;5016959;28;20021;-74
2021/03/21 02:12:07;;;;;;;1.25;0.55;;;5.50;99.90;;;;;;4970090;28;20044;-74
2021/03/21 02:14:53;;;;;;;0.40;0.40;;;5.60;99.90;;;;;;5035953;28;20331;-74
2021/03/21 02:17:36;;;;;;;1.38;1.27;;;5.60;99.90;;;;;;5028430;28;20408;-75
2021/03/21 02:20:23;;;;;;;0.30;0.30;;;5.60;99.90;;;;;;5018308;28;20151;-74
2021/03/21 02:22:56;;;;;;;0.65;0.65;;;5.70;99.90;;;;;;5021936;28;20077;-73
2021/03/21 02:25:40;;;;;;;0.17;0.17;;;5.60;99.90;;;;;;5033385;28;20482;-74
2021/03/21 02:28:34;;;;;;;0.88;0.73;;;5.60;99.90;;;;;;5034317;28;20316;-74
2021/03/21 02:31:05;;;;;;;0.35;0.35;;;5.60;99.90;;;;;;5007047;28;20045;-74
2021/03/21 02:33:41;;;;;;;0.30;0.30;;;5.70;99.90;;;;;;5016778;28;20104;-75
2021/03/21 02:36:12;;;;;;;0.80;0.77;;;5.70;99.90;;;;;;5017541;28;20305;-75
2021/03/21 02:38:44;;;;;;;2.72;1.15;;;5.70;99.90;;;;;;5035060;28;20034;-74
2021/03/21 02:41:28;;;;;;;0.98;0.98;;;5.80;99.90;;;;;;5010739;28;20030;-75
2021/03/21 02:43:59;;;;;;;0.25;0.25;;;5.80;99.90;;;;;;5035402;28;20025;-75
2021/03/21 02:46:31;;;;;;;1.20;0.88;;;5.80;99.90;;;;;;5011658;28;20026;-75
2021/03/21 02:49:38;;;;;;;2.67;1.20;;;5.80;99.90;;;;;;5013496;28;20048;-75
2021/03/21 02:52:12;;;;;;;5.63;1.63;;;5.80;99.90;;;;;;5014221;28;20309;-74
2021/03/21 02:54:59;;;;;;;7.28;2.30;;;5.80;99.90;;;;;;5032746;28;20316;-74
2021/03/21 02:57:32;;;;;;;3.13;1.02;;;5.80;99.90;;;;;;5016562;28;20025;-75
2021/03/21 03:00:01;;;;;;;3.63;1.67;;;5.90;99.90;;;;;;5034324;28;20033;-75
2021/03/21 03:02:39;;;;;;;2.88;2.42;;;5.90;99.90;;;;;;5026297;28;20061;-76
2021/03/21 03:05:09;;;;;;;1.20;1.15;;;5.90;99.90;;;;;;5035221;28;20022;-76
2021/03/21 03:08:02;;;;;;;1.55;1.45;;;5.90;99.90;;;;;;5030784;28;20033;-74
2021/03/21 03:10:32;;;;;;;1.95;1.77;;;5.90;99.90;;;;;;5035126;28;20014;-75
2021/03/21 03:13:21;;;;;;;3.55;1.88;;;6.00;99.90;;;;;;5026683;28;20310;-77
2021/03/21 03:15:54;;;;;;;2.05;1.95;;;6.10;99.90;;;;;;5035494;28;20379;-76
2021/03/21 03:18:30;;;;;;;4.78;2.45;;;6.10;99.90;;;;;;5033288;28;21670;-79
2021/03/21 03:21:06;;;;;;;6.18;2.10;;;6.20;99.90;;;;;;5024602;28;20022;-78
2021/03/21 03:23:51;;;;;;;0.90;0.90;;;6.20;99.90;;;;;;5031431;28;20116;-83
2021/03/21 03:26:23;;;;;;;4.20;1.27;;;6.30;99.90;;;;;;5017620;28;20108;-81
2021/03/21 03:28:56;;;;;;;2.42;1.52;;;6.30;99.90;;;;;;5034178;28;20051;-81
2021/03/21 03:31:43;;;;;;;1.52;0.93;;;6.40;99.90;;;;;;5015673;28;20053;-79
2021/03/21 03:34:09;;;;;;;1.83;0.57;;;6.40;99.90;;;;;;5016153;28;20323;-83
2021/03/21 03:36:35;;;;;;;1.00;1.00;;;6.40;99.90;;;;;;5015379;28;20043;-78
2021/03/21 03:39:01;;;;;;;6.50;2.87;;;6.40;99.90;;;;;;5034289;28;20076;-81
2021/03/21 03:41:58;;;;;;;0.05;0.05;;;6.40;99.90;;;;;;5035666;28;20051;-81
2021/03/21 03:45:02;;;;;;;1.67;1.58;;;6.40;99.90;;;;;;5005964;28;20022;-84
2021/03/21 03:47:32;;;;;;;7.45;1.35;;;6.40;99.90;;;;;;5015456;28;20025;-83
2021/03/21 03:50:18;;;;;;;2.42;1.25;;;6.40;99.90;;;;;;5009069;28;20479;-84
2021/03/21 03:53:01;;;;;;;1.05;1.05;;;6.40;99.90;;;;;;5014532;28;20112;-87
2021/03/21 03:55:42;;;;;;;0.90;0.82;;;6.30;99.90;;;;;;5031567;28;20021;-85
2021/03/21 03:58:21;;;;;;;3.22;1.20;;;6.30;99.90;;;;;;5009459;28;20036;-81
2021/03/21 04:01:02;;;;;;;0.55;0.30;;;6.30;99.90;;;;;;5032329;28;20033;-85
2021/03/21 04:03:55;;;;;;;0.52;0.52;;;6.30;99.90;;;;;;5012138;28;20036;-82
2021/03/21 04:06:32;;;;;;;2.03;0.70;;;6.30;99.90;;;;;;5016497;28;20032;-80
2021/03/21 04:09:12;;;;;;;0.10;0.10;;;6.30;99.90;;;;;;5032945;28;20020;-86
2021/03/21 04:11:50;;;;;;;0.00;0.00;;;6.30;99.90;;;;;;5017495;28;20028;-80
2021/03/21 04:14:22;;;;;;;2.15;1.13;;;6.30;99.90;;;;;;5028221;28;20033;-81
2021/03/21 04:17:17;;;;;;;1.23;1.13;;;6.30;99.90;;;;;;5017035;28;20076;-80
2021/03/21 04:19:54;;;;;;;2.60;1.35;;;6.20;99.90;;;;;;4985294;28;20064;-79
2021/03/21 04:22:29;;;;;;;0.50;0.50;;;6.20;99.90;;;;;;5033976;28;20352;-82
2021/03/21 04:25:06;;;;;;;1.50;0.52;;;6.20;99.90;;;;;;5017357;28;20102;-81
2021/03/21 04:27:43;;;;;;;2.35;2.13;;;6.20;99.90;;;;;;5017278;28;20071;-83
2021/03/21 04:30:14;;;;;;;0.50;0.15;;;6.20;99.90;;;;;;5002903;28;20041;-82
2021/03/21 04:32:43;;;;;;;0.57;0.45;;;6.20;99.90;;;;;;5010170;28;20439;-81
2021/03/21 04:35:33;;;;;;;0.77;0.40;;;6.20;99.90;;;;;;5012279;28;20442;-79
2021/03/21 04:38:07;;;;;;;0.68;0.68;;;6.20;99.90;;;;;;5025754;28;20032;-79
2021/03/21 04:40:35;;;;;;;0.60;0.60;;;6.20;99.90;;;;;;5017161;28;20033;-81
2021/03/21 04:43:26;;;;;;;4.10;1.67;;;6.20;99.90;;;;;;5015350;28;20507;-83
2021/03/21 04:45:55;;;;;;;7.43;0.45;;;6.30;99.90;;;;;;5003357;28;20031;-78
2021/03/21 04:48:24;;;;;;;0.15;0.15;;;6.30;99.90;;;;;;5033705;28;20026;-81
2021/03/21 04:51:01;;;;;;;0.70;0.55;;;6.30;99.90;;;;;;5033403;28;20018;-81
2021/03/21 04:53:36;;;;;;;;;;;6.30;99.90;;;;;;5015713;28;20025;-81
2021/03/21 04:56:10;;;;;;;0.75;0.63;;;6.30;99.90;;;;;;5017140;28;19905;-83
2021/03/21 04:58:43;;;;;;;0.93;0.75;;;6.30;99.90;;;;;;5016317;28;20340;-80
2021/03/21 05:01:34;;;;;;;0.10;0.10;;;6.30;99.90;;;;;;5033128;28;20096;-79
2021/03/21 05:04:15;;;;;;;6.00;0.57;;;6.30;99.90;;;;;;5028570;28;20439;-79
2021/03/21 05:06:58;;;;;;;0.80;0.57;;;6.30;99.90;;;;;;5029915;28;20021;-80
2021/03/21 05:09:27;;;;;;;10.05;0.40;;;6.20;99.90;;;;;;5026500;28;20028;-80
2021/03/21 05:12:14;;;;;;;0.00;0.00;;;6.20;99.90;;;;;;5002134;28;20037;-80
2021/03/21 05:14:54;;;;;;;0.32;0.30;;;6.20;99.90;;;;;;5021805;28;20022;-80
2021/03/21 05:17:22;;;;;;;1.92;0.55;;;6.20;99.90;;;;;;5006967;28;20328;-80
2021/03/21 05:20:02;;;;;;;16.50;0.70;;;6.20;99.90;;;;;;5012956;28;20022;-80
2021/03/21 05:22:54;;;;;;;0.17;0.17;;;6.20;99.90;;;;;;5030097;28;20026;-80
2021/03/21 05:25:20;;;;;;;0.20;0.20;;;6.10;99.90;;;;;;5033706;28;20032;-79
2021/03/21 05:27:57;;;;;;;0.20;0.20;;;6.10;99.90;;;;;;5014176;28;20029;-79
2021/03/21 05:30:28;;;;;;;0.13;0.13;;;6.10;99.90;;;;;;5016090;28;20049;-80
2021/03/21 05:32:54;;;;;;;0.30;0.30;;;6.10;99.90;;;;;;4999332;28;20026;-80
2021/03/21 05:35:30;;;;;;;0.10;0.10;;;6.10;99.90;;;;;;5016552;28;20036;-80
2021/03/21 05:38:26;;;;;;;0.20;0.20;;;6.10;99.90;;;;;;5015168;28;20033;-79
2021/03/21 05:41:22;;;;;;;0.40;0.38;;;6.10;99.90;;;;;;4972251;28;20336;-84
2021/03/21 05:43:54;;;;;;;0.85;0.85;;;6.00;99.90;;;;;;5007092;28;20034;-79
2021/03/21 05:47:02;;;;;;;0.40;0.40;;;6.00;99.90;;;;;;5012098;28;20025;-80
2021/03/21 05:49:52;;;;;;;7.88;0.75;;;6.00;99.90;;;;;;5030804;28;20030;-79
2021/03/21 05:52:56;;;;;;;0.30;0.30;;;6.00;99.90;;;;;;5028977;28;20420;-78
2021/03/21 05:55:30;;;;;;;0.10;0.10;;;6.10;99.90;;;;;;5013678;28;20075;-79
2021/03/21 05:58:20;;;;;;;0.32;0.32;;;6.10;99.90;;;;;;5032500;28;20095;-80
2021/03/21 06:01:33;;;;;;;0.20;0.20;;;6.10;99.90;;;;;;5017959;28;20393;-80
2021/03/21 06:04:17;;;;;;;1.13;0.90;;;6.10;99.90;;;;;;4974525;28;20026;-81
2021/03/21 06:07:06;;;;;;;5.18;0.52;;;6.10;99.90;;;;;;5016167;28;20056;-81
2021/03/21 06:09:56;;;;;;;11.52;0.82;;;6.10;99.90;;;;;;5031475;28;20105;-81
2021/03/21 06:12:46;;;;;;;0.10;0.10;;;6.10;99.90;;;;;;5019104;28;20308;-82
2021/03/21 06:15:49;;;;;;;0.08;0.08;;;6.10;99.90;;;;;;5032508;28;20079;-79
2021/03/21 06:18:30;;;;;;;0.30;0.30;;;6.10;99.90;;;;;;5011658;28;20293;-80
2021/03/21 06:21:26;;;;;;;0.00;0.00;;;6.10;99.90;;;;;;5014458;28;20021;-85
2021/03/21 06:24:17;;;;;;;10.43;0.85;;;6.10;99.90;;;;;;5034627;28;20029;-81
2021/03/21 06:27:29;;;;;;;0.15;0.15;;;6.10;99.90;;;;;;5018573;28;20432;-83
2021/03/21 06:29:57;;;;;;;0.03;0.03;;;6.20;99.90;;;;;;4956613;29;20063;-88
2021/03/21 06:32:50;;;;;;;6.40;0.52;;;6.30;99.90;;;;;;5005059;28;20134;-83
2021/03/21 06:35:44;;;;;;;0.15;0.08;;;6.30;99.90;;;;;;5017741;28;20025;-81
2021/03/21 06:38:27;;;;;;;0.00;0.00;;;6.30;99.90;;;;;;5026738;28;20079;-84
2021/03/21 06:41:13;;;;;;;5.70;2.13;;;6.40;99.90;;;;;;5035523;28;20032;-83
2021/03/21 06:44:17;;;;;;;0.10;0.10;;;6.30;99.90;;;;;;5018434;28;20412;-81
2021/03/21 06:46:48;;;;;;;0.15;0.15;;;6.30;99.90;;;;;;5033010;28;20501;-83
2021/03/21 06:49:32;;;;;;;0.25;0.25;;;6.30;99.90;;;;;;5008537;28;20033;-80
2021/03/21 06:52:07;;;;;;;0.20;0.20;;;6.30;99.90;;;;;;5034603;28;20104;-83
2021/03/21 06:54:56;;;;;;;0.03;0.03;;;6.30;99.90;;;;;;5018204;28;20451;-85
2021/03/21 06:57:59;;;;;;;1.33;1.17;;;6.30;99.90;;;;;;5031467;28;20045;-81
2021/03/21 07:00:43;;;;;;;0.25;0.25;;;6.30;99.90;;;;;;5020528;28;20116;-83
2021/03/21 07:03:20;;;;;;;0.10;0.10;;;6.40;99.90;;;;;;5032261;28;20030;-78
2021/03/21 07:06:05;;;;;;;9.18;1.60;;;6.40;99.90;;;;;;5034614;28;20100;-79
2021/03/21 07:09:08;;;;;;;0.52;0.40;;;6.40;99.90;;;;;;5032804;28;20048;-81
2021/03/21 07:12:07;;;;;;;3.53;0.90;;;6.50;99.90;;;;;;5034824;28;20120;-82
2021/03/21 07:15:10;;;;;;;1.65;1.13;;;6.50;99.90;;;;;;5030201;28;20037;-85
2021/03/21 07:17:53;;;;;;;0.10;0.05;;;6.50;99.90;;;;;;5010095;28;20038;-85
2021/03/21 07:20:43;;;;;;;0.10;0.10;;;6.50;99.90;;;;;;5016967;28;20025;-85
2021/03/21 07:23:38;;;;;;;2.10;0.75;;;6.50;99.90;;;;;;5034051;28;20079;-79
2021/03/21 07:26:32;;;;;;;0.22;0.22;;;6.50;99.90;;;;;;4981187;28;20065;-81
2021/03/21 07:29:34;;;;;;;1.05;0.85;;;6.50;99.90;;;;;;5006781;28;20041;-76
2021/03/21 07:32:31;;;;;;;0.00;0.00;;;6.50;99.90;;;;;;5035006;28;20033;-82
2021/03/21 07:35:25;;;;;;;0.45;0.45;;;6.50;99.90;;;;;;5026712;28;20025;-78
2021/03/21 07:38:03;;;;;;;0.05;0.05;;;6.40;99.90;;;;;;5033218;28;20029;-75
2021/03/21 07:40:42;;;;;;;0.65;0.65;;;6.40;99.90;;;;;;5028509;28;20355;-78
2021/03/21 07:43:20;;;;;;;1.08;0.32;;;6.50;99.90;;;;;;5029285;28;20277;-84
2021/03/21 07:45:56;;;;;;;0.43;0.43;;;6.40;99.90;;;;;;5016350;28;20041;-85
2021/03/21 07:48:22;;;;;;;1.60;1.50;;;6.50;99.90;;;;;;5031947;28;20519;-81
2021/03/21 07:51:08;;;;;;;1.27;0.88;;;6.50;99.90;;;;;;5012862;28;20025;-80
2021/03/21 07:53:39;;;;;;;0.80;0.47;;;6.50;99.90;;;;;;5011930;28;20041;-85
2021/03/21 07:56:28;;;;;;;0.52;0.52;;;6.50;99.90;;;;;;5033489;28;20427;-79
2021/03/21 07:59:01;;;;;;;1.40;1.10;;;6.40;99.90;;;;;;5033388;28;20022;-79
2021/03/21 08:01:27;;;;;;;0.55;0.55;;;6.40;99.90;;;;;;5030926;28;20030;-76
2021/03/21 08:04:12;;;;;;;0.30;0.30;;;6.40;99.90;;;;;;5010519;28;20128;-81
2021/03/21 08:06:41;;;;;;;0.10;0.10;;;6.40;99.90;;;;;;5029892;28;20041;-77
2021/03/21 08:09:22;;;;;;;0.22;0.22;;;6.50;99.90;;;;;;5015784;28;20021;-79
2021/03/21 08:11:53;;;;;;;0.98;0.68;;;6.50;99.90;;;;;;5008015;28;20427;-82
2021/03/21 08:14:29;;;;;;;0.10;0.10;;;6.50;99.90;;;;;;5013563;28;20049;-77
2021/03/21 08:17:01;;;;;;;0.20;0.20;;;6.50;99.90;;;;;;5012883;28;20074;-81
2021/03/21 08:19:30;;;;;;;0.03;0.03;;;6.50;99.90;;;;;;5013333;28;20045;-76
2021/03/21 08:21:57;;;;;;;1.27;0.93;;;6.50;99.90;;;;;;5030778;28;20025;-79
2021/03/21 08:24:34;;;;;;;0.60;0.60;;;6.40;99.90;;;;;;5031980;28;20022;-81
2021/03/21 08:27:09;;;;;;;3.10;0.85;;;6.50;99.90;;;;;;5015413;28;20413;-78
2021/03/21 08:29:56;;;;;;;0.32;0.32;;;6.40;99.90;;;;;;5029482;28;20049;-77
2021/03/21 08:32:22;;;;;;;0.95;0.95;;;6.50;99.90;;;;;;5007743;28;20445;-79
2021/03/21 08:34:49;;;;;;;16.52;0.57;;;6.50;99.90;;;;;;5033662;28;20033;-82
2021/03/21 08:37:33;;;;;;;4.20;1.80;;;6.50;99.90;;;;;;5007432;28;20026;-78
2021/03/21 08:40:20;;;;;;;2.95;1.17;;;6.50;99.90;;;;;;5016802;28;20116;-82
2021/03/21 08:42:48;;;;;;;6.13;1.58;;;6.50;99.90;;;;;;5032928;28;20217;-80
2021/03/21 08:45:21;;;;;;;4.70;2.20;;;6.50;99.90;;;;;;5014877;28;20045;-83
2021/03/21 08:47:55;;;;;;;1.45;1.00;;;6.50;99.90;;;;;;5032460;28;20040;-79
2021/03/21 08:50:36;;;;;;;1.67;1.55;;;6.50;99.90;;;;;;5014245;28;20072;-83
2021/03/21 08:53:02;;;;;;;4.93;0.65;;;6.50;99.90;;;;;;5010613;28;20032;-77
2021/03/21 08:55:34;;;;;;;4.20;2.20;;;6.50;99.90;;;;;;5015545;28;20026;-76
2021/03/21 08:58:19;;;;;;;1.48;1.17;;;6.50;99.90;;;;;;5031105;28;20026;-79
2021/03/21 09:00:45;;;;;;;14.30;1.90;;;6.60;99.90;;;;;;5031663;28;20447;-82
2021/03/21 09:03:18;;;;;;;0.53;0.53;;;6.60;99.90;;;;;;5030200;28;20033;-83
2021/03/21 09:05:55;;;;;;;0.40;0.40;;;6.60;99.90;;;;;;5015350;28;20025;-79
2021/03/21 09:08:25;;;;;;;0.93;0.88;;;6.50;99.90;;;;;;5014182;28;20057;-80
2021/03/21 09:10:54;;;;;;;1.73;0.75;;;6.50;99.90;;;;;;5009309;28;20044;-78
2021/03/21 09:13:30;;;;;;;0.30;0.20;;;6.40;99.90;;;;;;5029903;28;20056;-81
2021/03/21 09:15:59;;;;;;;4.28;0.82;;;6.40;99.90;;;;;;4996810;28;20514;-80
2021/03/21 09:18:30;;;;;;;3.38;1.63;;;6.40;99.90;;;;;;5004187;28;20026;-78
2021/03/21 09:21:16;;;;;;;1.25;1.15;;;6.40;99.90;;;;;;5027899;28;20087;-81
2021/03/21 09:23:46;;;;;;;0.50;0.50;;;6.40;99.90;;;;;;5021914;28;20028;-81
2021/03/21 09:26:15;;;;;;;2.10;1.08;;;6.40;99.90;;;;;;5022595;28;20045;-82
2021/03/21 09:28:53;;;;;;;1.45;0.73;;;6.40;99.90;;;;;;5026384;28;20112;-78
2021/03/21 09:31:19;;;;;;;2.55;1.75;;;6.50;99.90;;;;;;5022706;28;20116;-84
2021/03/21 09:34:26;;;;;;;1.25;1.20;;;6.60;99.90;;;;;;5032867;28;20026;-86
2021/03/21 09:37:01;;;;;;;0.35;0.35;;;6.80;99.90;;;;;;5013853;28;20113;-88
2021/03/21 09:39:31;;;;;;;3.75;1.48;;;6.90;99.90;;;;;;5017342;28;20116;-78
2021/03/21 09:41:58;;;;;;;0.30;0.30;;;6.90;99.90;;;;;;5034266;28;20086;-86
2021/03/21 09:44:36;;;;;;;1.38;1.27;;;6.80;99.90;;;;;;5018711;28;20025;-85
2021/03/21 09:47:32;;;;;;;7.13;1.27;;;6.80;99.90;;;;;;5026169;28;20045;-78
2021/03/21 09:50:10;;;;;;;1.42;0.93;;;6.70;99.90;;;;;;5011853;28;20459;-78
2021/03/21 09:52:54;;;;;;;1.33;0.90;;;6.70;99.90;;;;;;5032622;28;20036;-78
2021/03/21 09:55:41;;;;;;;1.05;0.95;;;6.60;99.90;;;;;;5018876;28;20041;-82
2021/03/21 09:58:49;;;;;;;0.80;0.80;;;6.70;99.90;;;;;;5036187;28;20025;-83
2021/03/21 10:01:43;;;;;;;0.10;0.10;;;6.80;99.90;;;;;;5015536;28;20033;-81
2021/03/21 10:04:35;;;;;;;6.13;1.00;;;6.80;99.90;;;;;;5035839;28;20030;-81
2021/03/21 10:07:07;;;;;;;4.10;2.03;;;6.90;99.90;;;;;;4985167;28;20033;-76
2021/03/21 10:09:34;;;;;;;11.02;1.83;;;6.90;99.90;;;;;;5029262;28;20021;-83
2021/03/21 10:12:19;;;;;;;4.57;1.52;;;6.90;99.90;;;;;;5017130;28;20412;-89
2021/03/21 10:15:00;;;;;;;4.20;1.38;;;6.90;99.90;;;;;;5015338;28;20065;-78
2021/03/21 10:17:29;;;;;;;1.17;1.08;;;6.90;99.90;;;;;;5033360;28;20038;-76
2021/03/21 10:19:56;;;;;;;1.58;1.48;;;6.90;99.90;;;;;;5033106;28;20057;-77
2021/03/21 10:22:24;;;;;;;1.85;1.75;;;6.90;99.90;;;;;;5011388;28;20037;-82
2021/03/21 10:25:15;;;;;;;5.05;2.20;;;6.90;99.90;;;;;;5034082;28;20032;-75
2021/03/21 10:27:49;;;;;;;0.00;0.00;;;6.90;99.90;;;;;;4991977;28;20061;-77
2021/03/21 10:30:18;;;;;;;0.63;0.57;;;6.90;99.90;;;;;;5017339;28;20734;-81
2021/03/21 10:33:12;;;;;;;0.32;0.32;;;7.00;99.90;;;;;;5034306;28;20033;-75
2021/03/21 10:35:41;;;;;;;8.45;3.65;;;6.90;99.90;;;;;;5034998;28;20076;-83
2021/03/21 10:38:29;;;;;;;0.68;0.68;;;6.90;99.90;;;;;;5015841;28;20029;-76
2021/03/21 10:40:55;;;;;;;3.67;1.38;;;6.90;99.90;;;;;;5016591;28;20673;-80
2021/03/21 10:43:20;;;;;;;3.08;2.78;;;6.90;99.90;;;;;;5017453;28;20114;-77
2021/03/21 10:45:50;;;;;;;3.10;0.93;;;6.90;99.90;;;;;;5012518;28;20034;-73
2021/03/21 10:48:18;;;;;;;0.55;0.55;;;7.00;99.90;;;;;;5010759;28;20051;-78
2021/03/21 10:50:58;;;;;;;2.05;1.85;;;7.00;99.90;;;;;;5012277;28;20025;-77
2021/03/21 10:53:37;;;;;;;0.70;0.70;;;6.90;99.90;;;;;;5013376;28;20071;-79
2021/03/21 10:56:13;;;;;;;1.05;0.88;;;6.90;99.90;;;;;;5015780;28;20029;-76
2021/03/21 10:58:41;;;;;;;0.80;0.80;;;6.80;99.90;;;;;;5011317;28;20029;-76
2021/03/21 11:01:19;;;;;;;0.45;0.45;;;6.70;99.90;;;;;;5031814;28;20100;-78
2021/03/21 11:03:49;;;;;;;1.10;0.73;;;6.80;99.90;;;;;;5035285;28;20025;-76
2021/03/21 11:06:17;;;;;;;0.60;0.60;;;6.80;99.90;;;;;;5027942;28;20137;-76
2021/03/21 11:08:42;;;;;;;2.85;1.23;;;6.80;99.90;;;;;;5033308;28;20025;-79
2021/03/21 11:11:19;;;;;;;0.45;0.38;;;6.80;99.90;;;;;;5022951;28;20033;-81
2021/03/21 11:13:46;;;;;;;0.47;0.47;;;6.80;99.90;;;;;;5024653;28;20029;-85
2021/03/21 11:16:21;;;;;;;2.00;1.70;;;6.90;99.90;;;;;;5014536;28;20403;-81
2021/03/21 11:18:53;;;;;;;0.70;0.70;;;7.00;99.90;;;;;;5013602;28;20021;-79
2021/03/21 11:21:22;;;;;;;0.52;0.30;;;6.90;99.90;;;;;;5032512;28;20025;-78
2021/03/21 11:23:54;;;;;;;9.75;1.40;;;6.80;99.90;;;;;;5015117;28;20412;-81
2021/03/21 11:26:26;;;;;;;3.22;1.92;;;6.90;99.90;;;;;;5034113;28;20014;-84
2021/03/21 11:29:08;;;;;;;0.57;0.43;;;6.90;99.90;;;;;;5024051;28;20029;-78
2021/03/21 11:31:35;;;;;;;1.75;1.65;;;7.00;99.90;;;;;;5017454;28;20029;-78
2021/03/21 11:34:20;;;;;;;0.70;0.50;;;7.00;99.90;;;;;;5027088;28;20033;-78
2021/03/21 11:36:57;;;;;;;1.75;0.75;;;7.10;99.90;;;;;;5031597;28;20037;-79
2021/03/21 11:39:52;;;;;;;2.40;1.90;;;7.00;99.90;;;;;;5025393;28;20076;-76
2021/03/21 11:42:21;;;;;;;0.35;0.35;;;7.00;99.90;;;;;;5009306;28;20044;-77
2021/03/21 11:44:50;;;;;;;5.78;0.15;;;7.00;99.90;;;;;;5005327;28;20056;-78
2021/03/21 11:47:28;;;;;;;0.28;0.28;;;6.80;99.90;;;;;;5008039;28;20048;-78
2021/03/21 11:49:56;;;;;;;0.25;0.25;;;6.80;99.90;;;;;;5013261;28;20025;-78
2021/03/21 11:52:22;;;;;;;16.85;1.23;;;6.90;99.90;;;;;;5006806;28;20126;-75
2021/03/21 11:54:48;;;;;;;2.80;1.67;;;7.00;99.90;;;;;;5005433;28;20340;-76
2021/03/21 11:57:42;;;;;;;4.07;2.28;;;7.10;99.90;;;;;;5029138;28;20041;-75
2021/03/21 12:00:22;;;;;;;0.40;0.40;;;7.00;99.90;;;;;;5030060;28;20044;-76
2021/03/21 12:03:09;;;;;;;2.15;0.93;;;7.10;99.90;;;;;;5005860;28;20038;-79
2021/03/21 12:05:38;;;;;;;2.45;0.68;;;7.00;99.90;;;;;;5024915;28;20112;-76
2021/03/21 12:08:08;;;;;;;2.17;0.52;;;7.10;99.90;;;;;;5007995;28;20029;-77
2021/03/21 12:10:37;;;;;;;0.70;0.70;;;7.10;99.90;;;;;;5028756;28;20305;-75
2021/03/21 12:13:38;;;;;;;5.25;2.08;;;7.10;99.90;;;;;;5015618;28;20116;-76
2021/03/21 12:16:26;;;;;;;0.25;0.25;;;7.00;99.90;;;;;;5023194;28;20160;-76
2021/03/21 12:18:57;;;;;;;6.32;3.30;;;7.00;99.90;;;;;;5012942;28;20079;-75
2021/03/21 12:21:24;;;;;;;3.10;2.25;;;7.10;99.90;;;;;;5032985;28;20022;-78
2021/03/21 12:24:00;;;;;;;14.27;2.63;;;7.10;99.90;;;;;;5032639;28;20021;-74
2021/03/21 12:26:31;;;;;;;3.85;0.63;;;7.10;99.90;;;;;;5031356;28;20014;-82
2021/03/21 12:29:25;;;;;;;2.17;0.80;;;7.10;99.90;;;;;;5014375;28;20053;-76
2021/03/21 12:31:54;;;;;;;6.75;1.40;;;7.10;99.90;;;;;;5023175;28;20048;-77
2021/03/21 12:34:48;;;;;;;0.40;0.40;;;7.00;99.90;;;;;;5010506;28;20056;-76
2021/03/21 12:37:25;;;;;;;0.65;0.65;;;6.90;99.90;;;;;;5005658;28;20037;-77
2021/03/21 12:40:14;;;;;;;4.50;1.75;;;6.90;99.90;;;;;;5018439;28;20306;-79
2021/03/21 12:42:45;;;;;;;0.85;0.63;;;6.90;99.90;;;;;;5029419;28;20029;-74
2021/03/21 12:45:17;;;;;;;3.63;2.33;;;7.00;99.90;;;;;;5032096;28;20030;-78
2021/03/21 12:47:47;;;;;;;11.00;1.88;;;7.00;99.90;;;;;;5032196;28;20026;-78
2021/03/21 12:50:37;;;;;;;0.55;0.55;;;7.00;99.90;;;;;;5031756;28;20021;-75
2021/03/21 12:53:07;;;;;;;5.68;0.73;;;7.10;99.90;;;;;;5026858;28;20714;-82
2021/03/21 12:55:33;;;;;;;2.42;1.17;;;7.10;99.90;;;;;;5029667;28;20030;-77
2021/03/21 12:57:59;;;;;;;7.32;0.85;;;7.10;99.90;;;;;;5028033;28;20029;-74
2021/03/21 13:00:34;;;;;;;1.15;1.10;;;7.10;99.90;;;;;;5025487;28;20021;-74
2021/03/21 13:03:02;;;;;;;0.50;0.50;;;7.10;99.90;;;;;;5033269;28;20060;-77
2021/03/21 13:05:35;;;;;;;4.35;0.95;;;7.10;99.90;;;;;;5015554;28;20029;-76
2021/03/21 13:08:01;;;;;;;3.05;1.50;;;7.10;99.90;;;;;;5028640;28;20025;-75
2021/03/21 13:10:31;;;;;;;6.90;0.82;;;7.10;99.90;;;;;;5010321;28;20349;-76
2021/03/21 13:12:57;;;;;;;0.80;0.80;;;7.10;99.90;;;;;;5016073;28;20041;-79
2021/03/21 13:15:23;;;;;;;0.30;0.30;;;7.10;99.90;;;;;;5016656;28;20473;-79
2021/03/21 13:17:49;;;;;;;0.80;0.70;;;7.00;99.90;;;;;;5016506;28;20029;-78
2021/03/21 13:20:18;;;;;;;7.65;2.15;;;7.00;99.90;;;;;;5014333;28;20029;-78
2021/03/21 13:22:44;;;;;;;0.85;0.30;;;7.00;99.90;;;;;;5036702;28;20029;-82
2021/03/21 13:25:21;;;;;;;6.15;1.45;;;7.00;99.90;;;;;;5032237;28;20044;-79
2021/03/21 13:27:47;;;;;;;2.13;1.45;;;6.90;99.90;;;;;;5011983;28;20022;-79
2021/03/21 13:30:16;;;;;;;0.22;0.22;;;6.90;99.90;;;;;;5025448;28;20041;-76
2021/03/21 13:32:41;;;;;;;2.35;2.15;;;6.90;99.90;;;;;;5033112;28;20084;-78
2021/03/21 13:35:07;;;;;;;2.75;1.20;;;7.00;99.90;;;;;;5029819;28;20744;-76
2021/03/21 13:37:33;;;;;;;2.33;0.52;;;6.90;99.90;;;;;;5031008;28;20083;-79
2021/03/21 13:39:59;;;;;;;4.80;1.93;;;6.90;99.90;;;;;;5007943;28;20038;-74
2021/03/21 13:42:24;;;;;;;0.40;0.40;;;6.90;99.90;;;;;;5014631;28;20113;-78
2021/03/21 13:44:50;;;;;;;0.63;0.60;;;6.90;99.90;;;;;;5030630;28;20416;-85
2021/03/21 13:47:16;;;;;;;0.47;0.47;;;6.90;99.90;;;;;;5034418;28;20026;-84